createdAt,value
2017-04-01T00:00:11.001Z,0
2017-04-01T00:05:10.976Z,0
2017-04-01T00:10:10.963Z,0
2017-04-01T00:15:10.927Z,0
2017-04-01T00:20:10.591Z,0
2017-04-01T00:25:10.563Z,0
2017-04-01T00:30:10.853Z,0
2017-04-01T00:35:10.819Z,0
2017-04-01T00:40:10.533Z,0
2017-04-01T00:45:10.469Z,0
2017-04-01T00:50:10.465Z,0
2017-04-01T00:55:10.737Z,0
2017-04-01T01:00:10.710Z,0
2017-04-01T01:05:10.681Z,0
2017-04-01T01:10:10.735Z,0
2017-04-01T01:15:10.639Z,0
2017-04-01T01:20:10.623Z,0
2017-04-01T01:25:10.295Z,0
2017-04-01T01:30:10.271Z,0
2017-04-01T01:35:10.214Z,0
2017-04-01T01:40:10.501Z,0
2017-04-01T01:45:10.480Z,0
2017-04-01T01:50:10.455Z,0
2017-04-01T01:55:10.420Z,0
2017-04-01T02:00:10.401Z,0
2017-04-01T02:05:10.066Z,0
2017-04-01T02:10:10.046Z,0
2017-04-01T02:15:10.313Z,0
2017-04-01T02:20:10.302Z,0
2017-04-01T02:25:10.331Z,0
2017-04-01T02:30:10.299Z,0
2017-04-01T02:35:10.300Z,0
2017-04-01T02:40:10.424Z,0
2017-04-01T02:45:09.887Z,0
2017-04-01T02:50:09.828Z,0
2017-04-01T02:55:10.125Z,0
2017-04-01T03:00:10.088Z,0
2017-04-01T03:05:09.748Z,0
2017-04-01T03:10:10.030Z,0
2017-04-01T03:15:10.008Z,0
2017-04-01T03:20:09.671Z,0
2017-04-01T03:25:09.958Z,0
2017-04-01T03:30:09.954Z,0
2017-04-01T03:35:09.588Z,0
2017-04-01T03:40:09.893Z,0
2017-04-01T03:45:09.897Z,0
2017-04-01T03:50:09.828Z,0
2017-04-01T03:55:09.570Z,0
2017-04-01T04:00:09.762Z,0
2017-04-01T04:05:09.730Z,0
2017-04-01T04:10:09.462Z,0
2017-04-01T04:15:09.675Z,0
2017-04-01T04:20:09.395Z,0
2017-04-01T04:25:09.614Z,0
2017-04-01T04:30:09.615Z,0
2017-04-01T04:35:09.563Z,0
2017-04-01T04:40:09.238Z,0
2017-04-01T04:45:09.527Z,0
2017-04-01T04:50:09.505Z,0
2017-04-01T04:55:09.494Z,0
2017-04-01T05:00:09.130Z,0
2017-04-01T05:05:09.514Z,0
2017-04-01T05:10:09.375Z,0
2017-04-01T05:15:09.350Z,0
2017-04-01T05:20:09.312Z,0
2017-04-01T05:25:09.281Z,0
2017-04-01T05:30:09.250Z,0
2017-04-01T05:35:08.931Z,0
2017-04-01T05:40:08.896Z,0
2017-04-01T05:45:09.176Z,0
2017-04-01T05:50:09.142Z,0
2017-04-01T05:55:09.134Z,4
2017-04-01T06:00:09.098Z,4
2017-04-01T06:05:09.161Z,4
2017-04-01T06:10:09.044Z,0
2017-04-01T06:15:09.075Z,4
2017-04-01T06:20:09.069Z,0
2017-04-01T06:25:08.646Z,8
2017-04-01T06:30:08.322Z,16
2017-04-01T06:35:08.888Z,12
2017-04-01T06:40:08.853Z,12
2017-04-01T06:45:08.531Z,8
2017-04-01T06:50:08.502Z,4
2017-04-01T06:55:08.805Z,4
2017-04-01T07:00:08.451Z,8
2017-04-01T07:05:08.726Z,12
2017-04-01T07:10:08.744Z,12
2017-04-01T07:15:08.667Z,8
2017-04-01T07:20:08.670Z,8
2017-04-01T07:25:08.726Z,12
2017-04-01T07:30:08.630Z,8
2017-04-01T07:35:08.585Z,8
2017-04-01T07:40:08.535Z,8
2017-04-01T07:45:08.510Z,8
2017-04-01T07:50:08.315Z,8
2017-04-01T07:55:08.449Z,12
2017-04-01T08:00:08.425Z,20
2017-04-01T08:05:08.395Z,24
2017-04-01T08:10:08.372Z,16
2017-04-01T08:15:08.350Z,16
2017-04-01T08:20:08.325Z,16
2017-04-01T08:25:08.303Z,24
2017-04-01T08:30:08.257Z,52
2017-04-01T08:35:08.283Z,32
2017-04-01T08:40:08.253Z,44
2017-04-01T08:45:08.270Z,24
2017-04-01T08:50:08.149Z,28
2017-04-01T08:55:07.885Z,36
2017-04-01T09:00:08.103Z,12
2017-04-01T09:05:08.069Z,16
2017-04-01T09:10:08.065Z,16
2017-04-01T09:15:08.035Z,20
2017-04-01T09:20:07.984Z,20
2017-04-01T09:25:07.991Z,28
2017-04-01T09:30:07.629Z,28
2017-04-01T09:35:07.987Z,52
2017-04-01T09:40:07.276Z,44
2017-04-01T09:45:07.895Z,20
2017-04-01T09:50:07.887Z,12
2017-04-01T09:55:07.860Z,8
2017-04-01T10:00:07.799Z,12
2017-04-01T10:05:07.452Z,12
2017-04-01T10:10:07.758Z,8
2017-04-01T10:15:07.720Z,8
2017-04-01T10:20:07.686Z,8
2017-04-01T10:25:07.648Z,1776
2017-04-01T10:30:07.591Z,1224
2017-04-01T10:35:07.564Z,1096
2017-04-01T10:40:07.482Z,1720
2017-04-01T10:45:07.433Z,2176
2017-04-01T10:50:07.179Z,2328
2017-04-01T10:55:07.026Z,2004
2017-04-01T11:00:06.969Z,1672
2017-04-01T11:05:07.221Z,1024
2017-04-01T11:10:07.167Z,436
2017-04-01T11:15:07.160Z,400
2017-04-01T11:20:06.790Z,288
2017-04-01T11:25:06.701Z,260
2017-04-01T11:30:07.020Z,372
2017-04-01T11:35:07.137Z,252
2017-04-01T11:40:07.084Z,376
2017-04-01T11:45:06.828Z,616
2017-04-01T11:50:06.740Z,492
2017-04-01T11:55:06.670Z,668
2017-04-01T12:00:06.606Z,1148
2017-04-01T12:05:06.564Z,1780
2017-04-01T12:10:06.499Z,1664
2017-04-01T12:15:06.789Z,1440
2017-04-01T12:20:06.419Z,1800
2017-04-01T12:25:06.331Z,2468
2017-04-01T12:30:06.272Z,2704
2017-04-01T12:35:05.939Z,2952
2017-04-01T12:40:06.219Z,2884
2017-04-01T12:45:06.131Z,3568
2017-04-01T12:50:06.083Z,2608
2017-04-01T12:55:05.723Z,1552
2017-04-01T13:00:05.968Z,2344
2017-04-01T13:05:05.910Z,1584
2017-04-01T13:10:05.870Z,1268
2017-04-01T13:15:05.811Z,2984
2017-04-01T13:20:05.763Z,2824
2017-04-01T13:25:05.715Z,1764
2017-04-01T13:30:05.709Z,1768
2017-04-01T13:35:05.606Z,1672
2017-04-01T13:40:05.644Z,1984
2017-04-01T13:45:05.484Z,2232
2017-04-01T13:50:05.440Z,1840
2017-04-01T13:55:05.395Z,2016
2017-04-01T14:00:05.031Z,1560
2017-04-01T14:05:04.988Z,1404
2017-04-01T14:10:05.294Z,1004
2017-04-01T14:15:04.928Z,1648
2017-04-01T14:20:05.140Z,1552
2017-04-01T14:25:05.067Z,1460
2017-04-01T14:30:05.034Z,1076
2017-04-01T14:35:04.964Z,624
2017-04-01T14:40:04.922Z,460
2017-04-01T14:45:04.881Z,300
2017-04-01T14:50:04.789Z,244
2017-04-01T14:55:04.832Z,240
2017-04-01T15:00:04.779Z,264
2017-04-01T15:05:04.606Z,332
2017-04-01T15:10:04.350Z,320
2017-04-01T15:15:04.482Z,292
2017-04-01T15:20:04.528Z,276
2017-04-01T15:25:04.416Z,296
2017-04-01T15:30:04.333Z,260
2017-04-01T15:35:04.278Z,276
2017-04-01T15:40:04.162Z,356
2017-04-01T15:45:04.093Z,640
2017-04-01T15:50:04.037Z,828
2017-04-01T15:55:03.668Z,776
2017-04-01T16:00:03.967Z,584
2017-04-01T16:05:03.939Z,396
2017-04-01T16:10:03.799Z,412
2017-04-01T16:15:03.448Z,484
2017-04-01T16:20:03.366Z,512
2017-04-01T16:25:03.320Z,420
2017-04-01T16:30:03.276Z,324
2017-04-01T16:35:03.249Z,244
2017-04-01T16:40:03.133Z,208
2017-04-01T16:45:03.494Z,224
2017-04-01T16:50:03.360Z,212
2017-04-01T16:55:03.183Z,164
2017-04-01T17:00:03.201Z,136
2017-04-01T17:05:03.209Z,116
2017-04-01T17:10:03.057Z,108
2017-04-01T17:15:02.731Z,100
2017-04-01T17:20:02.972Z,88
2017-04-01T17:25:02.273Z,84
2017-04-01T17:30:02.805Z,72
2017-04-01T17:35:02.745Z,56
2017-04-01T17:40:02.677Z,60
2017-04-01T17:45:02.317Z,60
2017-04-01T17:50:02.234Z,56
2017-04-01T17:55:02.529Z,36
2017-04-01T18:00:02.115Z,24
2017-04-01T18:05:02.351Z,12
2017-04-01T18:10:02.286Z,12
2017-04-01T18:15:02.247Z,8
2017-04-01T18:20:02.191Z,4
2017-04-01T18:25:01.829Z,4
2017-04-01T18:30:02.163Z,0
2017-04-01T18:35:02.002Z,0
2017-04-01T18:40:01.945Z,0
2017-04-01T18:45:01.894Z,0
2017-04-01T18:50:01.545Z,0
2017-04-01T18:55:01.768Z,0
2017-04-01T19:00:01.706Z,0
2017-04-01T19:05:01.582Z,0
2017-04-01T19:10:01.856Z,0
2017-04-01T19:15:01.230Z,0
2017-04-01T19:20:01.484Z,0
2017-04-01T19:25:01.446Z,0
2017-04-01T19:30:01.370Z,0
2017-04-01T19:35:01.304Z,0
2017-04-01T19:40:01.252Z,0
2017-04-01T19:45:01.264Z,0
2017-04-01T19:50:01.264Z,0
2017-04-01T19:55:01.048Z,0
2017-04-01T20:00:01.024Z,0
2017-04-01T20:05:00.916Z,0
2017-04-01T20:10:00.899Z,0
2017-04-01T20:15:00.543Z,0
2017-04-01T20:20:00.708Z,0
2017-04-01T20:25:00.637Z,0
2017-04-01T20:30:00.575Z,0
2017-04-01T20:35:00.502Z,0
2017-04-01T20:40:00.429Z,0
2017-04-01T20:45:00.454Z,0
2017-04-01T20:50:00.393Z,0
2017-04-01T20:55:00.235Z,0
2017-04-01T20:59:59.878Z,0
2017-04-01T21:05:00.127Z,0
2017-04-01T21:09:59.743Z,0
2017-04-01T21:14:59.699Z,0
2017-04-01T21:19:59.934Z,0
2017-04-01T21:24:59.912Z,0
2017-04-01T21:29:59.506Z,0
2017-04-01T21:34:59.789Z,0
2017-04-01T21:39:59.407Z,0
2017-04-01T21:44:59.644Z,0
